Archival Weather

Randolph Afb

Universal City, Texas (KRND)

Report from: Monday, September 26, 2022 5:55 AM CDT
Current time: Saturday, February 4, 2023 9:46 PM CST

Current weather
Weather history
Weather forecast

Temperature22.3°C (72.1°F)
Dew point20.6°C (69.1°F)
Winds 7 kts (3.6 m/s, 8.1 mph) North-Northwest (330°)
Visibility10 mi. (16.1 km)
Clouds Scattered clouds 10,000 ft. (3,048 m)
Altimeter29.99 in.Hg (1016 mB)
Relative humidity90 %
Density altitude1,100 ft. (335 m)
Sea-level pressure101.5 kPa (1015 mB, 29.96 in.Hg)
Remarks Fully automated report
Automated weather observing station with precipitation discriminator
Flight conditions Visual Meteorological Conditions
Raw dataKRND 261055Z AUTO 33007KT 10SM SCT100 22/21 A2999 RMK AO2 SLP147 T02230206
An unhandled exception has occurred. See browser dev tools for details. Reload 🗙